ジョモ・ケニヤッタ国際空港の過去48時間の天気

ジョモ・ケニヤッタ国際空港 (Nairobi/Jomo Kenyatta Airport)

現在時刻: 1/26 10:11 EAT (1/26 07:11 UTC) 以下の時間は現地時間です。

過去48時間のMETAR気象情報
時間 風向 風速(m/s) 視程 気温(℃) 湿度(%) 気圧(hPa) 天気現象
26 09:30 北東 5 5000m 17 100 1025 弱い雨
26 09:00 北東 5 10km以上 17 100 1025 弱い雨
26 08:30 北東 7 4000m 17 100 1024 雨 もや
26 08:00 東北東 7 5000m 17 100 1024 弱い雨
26 07:30 東北東 2 10km以上 18 94 1023
26 07:00 北東 2 10km以上 18 94 1023
26 06:00 不定 1 10km以上 18 94 1022
26 05:00 北西 1 10km以上 17 94 1021
26 04:00 静穏 0 10km以上 17 94 1022
26 03:30 不定 1 10km以上 17 94 1022
26 03:00 不定 1 10km以上 17 94 1022
26 02:30 2 10km以上 18 94 1022
26 02:00 2 10km以上 18 94 1022
26 01:30 東北東 2 10km以上 18 94 1023
26 01:00 東北東 3 10km以上 18 94 1023
26 00:30 5 10km以上 18 94 1023
26 00:00 東北東 5 10km以上 18 94 1024 弱い雨
25 23:30 北東 4 10km以上 19 94 1023
25 23:00 北東 3 10km以上 19 94 1023
25 22:30 東北東 3 10km以上 19 94 1023
25 22:00 北東 4 10km以上 19 94 1023
25 21:30 北東 3 10km以上 19 94 1023
25 21:00 北東 3 10km以上 19 88 1023
25 20:30 東北東 3 10km以上 20 83 1022
25 20:00 4 10km以上 20 83 1021
25 19:30 東北東 4 10km以上 21 78 1021
25 19:00 東北東 6 10km以上 22 73 1020
25 18:30 東北東 6 10km以上 22 73 1020
25 18:00 東北東 7 10km以上 23 65 1019
25 17:30 東北東 7 10km以上 24 61 1019
25 17:00 東北東 7 10km以上 24 61 1019
25 16:30 北東 7 10km以上 24 65 1019
25 16:00 北東 7 10km以上 25 57 1019
25 15:30 北東 6 10km以上 25 61 1020
25 15:00 北東 7 10km以上 25 61 1020
25 14:30 北東 6 10km以上 24 65 1020
25 14:00 北東 7 10km以上 24 65 1021
25 13:30 北北東 6 10km以上 23 69 1022
25 13:00 北東 6 10km以上 23 69 1022 弱いしゅう雨
25 12:30 北東 6 10km以上 23 69 1023
25 12:00 北東 6 10km以上 22 73 1023
25 11:30 北東 6 10km以上 21 78 1023
25 11:00 東北東 6 10km以上 21 78 1024
25 10:30 北東 5 10km以上 20 83 1024
25 10:00 北東 5 10km以上 20 83 1024
25 09:30 北東 5 10km以上 19 94 1024
25 09:00 北東 5 10km以上 19 88 1024
25 08:30 北東 4 10km以上 19 88 1023
25 08:00 北北東 3 10km以上 18 94 1023
25 07:30 北北東 2 10km以上 18 94 1022
25 07:00 北東 2 10km以上 18 94 1022
25 06:30 北北東 2 10km以上 18 94 1022
25 06:00 北北東 2 10km以上 18 94 1022
25 05:30 北東 3 10km以上 18 94 1022
25 05:00 3 10km以上 18 94 1022
25 04:30 北東 3 10km以上 18 94 1021
25 04:00 3 10km以上 18 94 1022
25 03:30 東北東 4 10km以上 19 88 1022
25 03:00 北北東 3 10km以上 19 88 1022
25 02:00 北東 2 10km以上 19 88 1022
25 01:30 北東 2 10km以上 19 88 1022
25 00:30 2 10km以上 19 88 1023
25 00:00 2 10km以上 19 88 1023
24 23:30 2 10km以上 19 88 1023
24 23:00 3 10km以上 19 88 1023 弱いしゅう雨
24 22:30 北東 2 10km以上 19 83 1023
24 22:00 北東 3 10km以上 19 83 1023
24 21:30 北東 4 10km以上 20 83 1023
24 21:00 北東 3 10km以上 20 83 1022
24 20:30 東北東 4 10km以上 20 83 1022
24 20:00 北東 4 10km以上 20 83 1021
24 19:30 東北東 3 10km以上 20 83 1021
24 19:00 東北東 4 10km以上 20 73 1021
24 18:30 東北東 4 10km以上 21 78 1020
24 18:00 5 10km以上 21 73 1020
24 17:30 6 10km以上 21 73 1020
24 17:00 東北東 4 10km以上 23 65 1020
24 16:30 北東 5 10km以上 23 65 1020
24 16:00 東北東 5 10km以上 23 61 1020
24 15:30 北東 5 10km以上 23 61 1020
24 15:00 北東 6 10km以上 23 61 1020
24 14:30 北東 5 10km以上 22 69 1021
24 14:00 北東 6 10km以上 23 61 1021
24 13:30 東北東 6 10km以上 23 61 1021
24 13:00 北東 6 10km以上 21 64 1022
24 12:30 北東 6 10km以上 23 69 1022
24 11:30 4 10km以上 21 78 1023
24 11:00 東南東 4 10km以上 21 78 1023
24 10:30 東南東 2 10km以上 21 78 1024
HKJK 260630Z 05010KT 5000 -RA SCT005 BKN016 BKN080 17/17 Q1025 NOSIG
HKJK 260600Z 04010KT 9999 -RA SCT005 BKN016 BKN080 17/17 Q1025 NOSIG
HKJK 260530Z 05014KT 4000 RA BR SCT003 BKN016 BKN080 17/17 Q1024 TEMPO 7000 -RA SCT005 BKN015 BKN080
HKJK 260500Z 06013KT 5000 -RA SCT003 BKN016 BKN080 17/17 Q1024 TEMPO 9999 -RA SCT005 BKN015 BKN080
HKJK 260430Z 06004KT 9999 SCT008 OVC018 18/17 Q1023 NOSIG
HKJK 260400Z 05003KT 9999 SCT008 OVC018 18/17 Q1023 NOSIG
HKJK 260300Z VRB02KT 9999 SCT010 BKN016 18/17 Q1022 NOSIG
HKJK 260200Z 32002KT 9999 FEW016 SCT090 17/16 Q1021 NOSIG
HKJK 260100Z 00000KT 9999 FEW006 BKN090 17/16 Q1022 NOSIG
HKJK 260030Z VRB02KT 9999 FEW006 BKN080 17/16 Q1022 NOSIG
HKJK 260000Z VRB02KT 9999 FEW006 BKN080 17/16 Q1022 NOSIG
HKJK 252330Z 09003KT 9999 SCT003 BKN090 18/17 Q1022 NOSIG
HKJK 252300Z 08003KT 9999 SCT003 BKN090 18/17 Q1022 NOSIG
HKJK 252230Z 06004KT 9999 SCT003 BKN016 18/17 Q1023 NOSIG
HKJK 252200Z 06006KT 9999 SCT003 BKN016 18/17 Q1023 NOSIG
HKJK 252130Z 08010KT 9999 SCT005 BKN016 18/17 Q1023 RERA NOSIG
HKJK 252100Z 07009KT 9999 -RA FEW004 SCT015 BKN080 18/17 Q1024 NOSIG
HKJK 252030Z 04007KT 9999 FEW020 19/18 Q1023 NOSIG
HKJK 252000Z 04006KT 9999 FEW020 19/18 Q1023 NOSIG
HKJK 251930Z 06006KT 9999 FEW010 BKN016 19/18 Q1023 NOSIG
HKJK 251900Z 05007KT 9999 BKN016 19/18 Q1023 NOSIG
HKJK 251830Z 05006KT 9999 BKN017 19/18 Q1023 NOSIG
HKJK 251800Z 05006KT 9999 SCT020 19/17 Q1023 NOSIG
HKJK 251730Z 07006KT 9999 FEW022 20/17 Q1022 NOSIG
HKJK 251700Z 08008KT 9999 FEW022 SCT200 20/17 Q1021 NOSIG
HKJK 251630Z 06007KT 9999 SCT024 BKN200 21/17 Q1021 NOSIG
HKJK 251600Z 06011KT 9999 SCT024 BKN200 22/17 Q1020 NOSIG
HKJK 251530Z 06011KT 9999 FEW025CB SCT026 BKN200 22/17 Q1020 NOSIG
HKJK 251500Z 07014KT 9999 FEW026CB SCT028 23/16 Q1019 NOSIG
HKJK 251430Z 06014KT 9999 FEW027CB SCT028 24/16 Q1019 NOSIG
HKJK 251400Z 06013KT 9999 FEW027 SCT028 24/16 Q1019 NOSIG
HKJK 251330Z 05013KT 9999 BKN027 24/17 Q1019 NOSIG
HKJK 251300Z 05014KT 9999 BKN027 25/16 Q1019 NOSIG
HKJK 251230Z 04012KT 9999 BKN027 25/17 Q1020 NOSIG
HKJK 251200Z 05014KT 9999 BKN026 25/17 Q1020 NOSIG
HKJK 251130Z 05012KT 9999 BKN025 24/17 Q1020 NOSIG
HKJK 251100Z 04013KT 9999 BKN024 24/17 Q1021 NOSIG
HKJK 251030Z 03012KT 9999 SCT022 BKN080 23/17 Q1022 RESH NOSIG
HKJK 251000Z 04012KT 9999 -SHRA SCT020 BKN080 23/17 Q1022 NOSIG
HKJK 250930Z 04011KT 9999 SCT020 BKN080 23/17 Q1023 NOSIG
HKJK 250900Z 05012KT 9999 BKN017 22/17 Q1023 NOSIG
HKJK 250830Z 05011KT 9999 BKN017 21/17 Q1023 NOSIG
HKJK 250800Z 06011KT 9999 FEW010 BKN016 21/17 Q1024 NOSIG
HKJK 250730Z 04010KT 9999 FEW010 BKN016 20/17 Q1024 NOSIG
HKJK 250700Z 05009KT 9999 SCT008 BKN016 20/17 Q1024 NOSIG
HKJK 250630Z 04009KT 9999 BKN008 OVC015 19/18 Q1024 TEMPO -RA BKN012 OVC019
HKJK 250600Z 05010KT 9999 BKN008 OVC015 19/17 Q1024 TEMPO -RA BKN012 OVC018
HKJK 250530Z 04008KT 9999 OVC014 19/17 Q1023 NOSIG
HKJK 250500Z 03006KT 9999 BKN014 OVC090 18/17 Q1023 NOSIG
HKJK 250430Z 03004KT 9999 SCT014 BKN090 18/17 Q1022 NOSIG
HKJK 250400Z 05003KT 9999 SCT014 BKN090 18/17 Q1022 NOSIG
HKJK 250330Z 02004KT 9999 SCT004 BKN090 18/17 Q1022 TEMPO TL0500 BKN004
HKJK 250300Z 03004KT 9999 SCT004 BKN090 18/17 Q1022 BECMG 7000 SCT004
HKJK 250230Z 04005KT 9999 SCT004 BKN090 18/17 Q1022 NOSIG
HKJK 250200Z 09006KT 9999 BKN003 OVC017 18/17 Q1022 NOSIG
HKJK 250130Z 05006KT 9999 BKN004 OVC017 18/17 Q1021 NOSIG
HKJK 250100Z 08005KT 9999 BKN004 OVC017 18/17 Q1022 NOSIG
HKJK 250030Z 06007KT 9999 BKN017 19/17 Q1022
HKJK 250000Z 03005KT 9999 BKN017 19/17 Q1022 NOSIG
HKJK 242300Z 04004KT 9999 BKN017 19/17 Q1022 NOSIG
HKJK 242230Z 04004KT 9999 BKN017 19/17 Q1022 NOSIG
HKJK 242130Z 35003KT 9999 BKN020 19/17 Q1023 NOSIG
HKJK 242100Z 36003KT 9999 BKN020 19/17 Q1023 NOSIG
HKJK 242030Z 36004KT 9999 BKN020 19/17 Q1023 RESHRA NOSIG
HKJK 242000Z 01005KT 9999 -SHRA BKN020 19/17 Q1023 NOSIG
HKJK 241930Z 04004KT 9999 FEW020 BKN090 19/16 Q1023 NOSIG
HKJK 241900Z 04006KT 9999 FEW020 BKN090 19/16 Q1023 NOSIG
HKJK 241830Z 04007KT 9999 FEW020 BKN090 20/17 Q1023 NOSIG
HKJK 241800Z 04005KT 9999 SCT020 20/17 Q1022 NOSIG
HKJK 241730Z 06008KT 9999 FEW022 BKN090 20/17 Q1022 NOSIG
HKJK 241700Z 04007KT 9999 FEW024 BKN090 20/17 Q1021 NOSIG
HKJK 241630Z 06005KT 9999 FEW026CB BKN090 20/17 Q1021 NOSIG
HKJK 241600Z 07007KT 9999 FEW026CB BKN090 20/15 Q1021 NOSIG
HKJK 241530Z 07008KT 9999 FEW026 BKN090 21/17 Q1020 NOSIG
HKJK 241500Z 09009KT 9999 FEW026 BKN090 21/16 Q1020 NOSIG
HKJK 241430Z 09012KT 9999 FEW026 BKN090 21/16 Q1020 NOSIG
HKJK 241400Z 06007KT 9999 FEW026 BKN090 23/16 Q1020 NOSIG
HKJK 241330Z 04009KT 9999 FEW026 BKN090 23/16 Q1020 NOSIG
HKJK 241300Z 06010KT 9999 FEW026 BKN026 23/15 Q1020 NOSIG
HKJK 241230Z 04009KT 9999 FEW026 BKN090 23/15 Q1020 NOSIG
HKJK 241200Z 05011KT 9999 BKN025 23/15 Q1020 NOSIG
HKJK 241130Z 04010KT 9999 BKN025 22/16 Q1021 NOSIG
HKJK 241100Z 05012KT 9999 BKN025 23/15 Q1021 NOSIG
HKJK 241030Z 06012KT 9999 BKN024 23/15 Q1021 NOSIG
HKJK 241000Z 05011KT 9999 BKN024 21/14 Q1022 NOSIG
HKJK 240930Z 05012KT 9999 BKN024 23/17 Q1022 NOSIG
HKJK 240830Z 10007KT 9999 BKN022 21/17 Q1023 NOSIG
HKJK 240800Z 11007KT 9999 BKN022 21/17 Q1023 NOSIG
HKJK 240730Z 12004KT 9999 BKN022 21/17 Q1024 NOSIG